createdAt,value
2023-08-22T00:00:32.568Z,74.70
2023-08-22T00:03:19.796Z,74.63
2023-08-22T00:05:46.729Z,74.57
2023-08-22T00:08:13.572Z,74.67
2023-08-22T00:10:41.028Z,74.63
2023-08-22T00:13:07.871Z,74.62
2023-08-22T00:15:34.958Z,74.61
2023-08-22T00:18:02.192Z,74.65
2023-08-22T00:20:29.222Z,74.77
2023-08-22T00:22:56.150Z,75.06
2023-08-22T00:25:22.998Z,75.18
2023-08-22T00:27:49.840Z,75.51
2023-08-22T00:30:16.679Z,76.26
2023-08-22T00:32:43.677Z,76.45
2023-08-22T00:35:12.522Z,76.75
2023-08-22T00:37:39.661Z,76.63
2023-08-22T00:40:07.936Z,76.44
2023-08-22T00:42:34.783Z,76.03
2023-08-22T00:45:02.846Z,75.76
2023-08-22T00:47:30.236Z,75.42
2023-08-22T00:49:57.244Z,75.57
2023-08-22T00:52:24.087Z,75.34
2023-08-22T00:54:51.749Z,75.16
2023-08-22T00:57:18.791Z,75.10
2023-08-22T00:59:45.736Z,74.99
2023-08-22T01:02:15.367Z,75.02
2023-08-22T01:04:44.026Z,74.98
2023-08-22T01:07:27.456Z,75.04
2023-08-22T01:10:00.038Z,75.14
2023-08-22T01:12:33.020Z,75.40
2023-08-22T01:15:11.228Z,75.66
2023-08-22T01:17:39.594Z,75.78
2023-08-22T01:20:12.487Z,76.06
2023-08-22T01:22:42.515Z,75.77
2023-08-22T01:25:09.672Z,75.68
2023-08-22T01:27:59.333Z,75.85
2023-08-22T01:30:34.195Z,75.65
2023-08-22T01:33:07.642Z,75.52
2023-08-22T01:35:35.624Z,75.32
2023-08-22T01:38:03.529Z,75.34
2023-08-22T01:40:31.040Z,75.43
2023-08-22T01:43:00.341Z,75.43
2023-08-22T01:45:27.592Z,75.23
2023-08-22T01:47:54.627Z,75.38
2023-08-22T01:50:21.681Z,75.62
2023-08-22T01:52:48.933Z,75.89
2023-08-22T01:55:16.395Z,75.50
2023-08-22T01:57:45.791Z,75.37
2023-08-22T02:00:13.350Z,75.28
2023-08-22T02:02:40.270Z,75.32
2023-08-22T02:05:08.206Z,75.34
2023-08-22T02:07:36.363Z,75.58
2023-08-22T02:10:06.862Z,75.39
2023-08-22T02:12:33.799Z,75.34
2023-08-22T02:15:01.081Z,75.23
2023-08-22T02:17:28.210Z,75.16
2023-08-22T02:19:57.761Z,75.15
2023-08-22T02:22:24.652Z,75.14
2023-08-22T02:24:51.491Z,75.02
2023-08-22T02:27:18.435Z,74.84
2023-08-22T02:29:45.274Z,74.85
2023-08-22T02:32:12.115Z,74.74
2023-08-22T02:34:41.216Z,74.80
2023-08-22T02:37:08.255Z,74.87
2023-08-22T02:39:35.103Z,74.56
2023-08-22T02:42:02.755Z,74.77
2023-08-22T02:44:29.710Z,74.72
2023-08-22T02:46:56.645Z,74.69
2023-08-22T02:49:23.486Z,74.71
2023-08-22T02:51:50.322Z,74.88
2023-08-22T02:54:17.274Z,74.92
2023-08-22T02:56:44.212Z,74.93
2023-08-22T02:59:11.264Z,74.87
2023-08-22T03:01:38.097Z,74.99
2023-08-22T03:04:05.449Z,75.14
2023-08-22T03:06:32.292Z,75.30
2023-08-22T03:09:00.575Z,75.38
2023-08-22T03:11:28.737Z,75.21
2023-08-22T03:13:56.096Z,75.31
2023-08-22T03:16:23.672Z,75.59
2023-08-22T03:18:50.697Z,75.39
2023-08-22T03:21:17.640Z,75.39
2023-08-22T03:23:45.404Z,75.53
2023-08-22T03:26:14.765Z,75.16
2023-08-22T03:28:42.279Z,75.22
2023-08-22T03:31:09.527Z,75.01
2023-08-22T03:33:36.478Z,74.95
2023-08-22T03:36:06.692Z,74.83
2023-08-22T03:38:35.159Z,75.09
2023-08-22T03:41:03.536Z,75.00
2023-08-22T03:43:30.681Z,74.93
2023-08-22T03:45:58.001Z,75.01
2023-08-22T03:48:25.256Z,75.22
2023-08-22T03:50:53.053Z,75.30
2023-08-22T03:53:20.004Z,75.53
2023-08-22T03:55:47.042Z,75.63
2023-08-22T03:58:13.985Z,75.86
2023-08-22T04:00:41.048Z,75.82
2023-08-22T04:03:07.998Z,75.69
2023-08-22T04:05:35.125Z,75.83
2023-08-22T04:08:02.688Z,75.81
2023-08-22T04:10:29.621Z,76.02
2023-08-22T04:12:56.564Z,76.10
2023-08-22T04:15:23.558Z,76.28
2023-08-22T04:17:51.485Z,76.18
2023-08-22T04:20:18.828Z,75.81
2023-08-22T04:22:45.673Z,75.63
2023-08-22T04:25:14.163Z,75.71
2023-08-22T04:27:43.179Z,76.04
2023-08-22T04:30:12.278Z,75.92
2023-08-22T04:32:39.445Z,75.79
2023-08-22T04:35:08.172Z,75.70
2023-08-22T04:37:38.325Z,75.78
2023-08-22T04:40:06.166Z,75.63
2023-08-22T04:42:51.734Z,75.78
2023-08-22T04:45:19.083Z,76.35
2023-08-22T04:47:46.582Z,76.30
2023-08-22T04:50:14.101Z,76.34
2023-08-22T04:52:41.044Z,76.36
2023-08-22T04:55:08.605Z,75.96
2023-08-22T04:57:35.454Z,75.86
2023-08-22T05:00:04.642Z,75.30
2023-08-22T05:02:31.641Z,75.31
2023-08-22T05:04:58.841Z,75.09
2023-08-22T05:07:26.191Z,75.12
2023-08-22T05:09:53.439Z,74.48
2023-08-22T05:12:21.687Z,74.12
2023-08-22T05:14:48.633Z,74.08
2023-08-22T05:17:15.580Z,73.94
2023-08-22T05:19:43.062Z,73.81
2023-08-22T05:22:10.206Z,73.96
2023-08-22T05:24:39.410Z,74.30
2023-08-22T05:27:06.690Z,74.09
2023-08-22T05:29:34.558Z,74.07
2023-08-22T05:32:02.040Z,73.82
2023-08-22T05:34:29.225Z,74.06
2023-08-22T05:36:56.168Z,73.97
2023-08-22T05:39:23.630Z,73.97
2023-08-22T05:41:50.467Z,73.69
2023-08-22T05:44:18.234Z,73.40
2023-08-22T05:46:45.580Z,73.07
2023-08-22T05:49:13.137Z,72.87
2023-08-22T05:51:40.522Z,72.67
2023-08-22T05:54:07.437Z,72.43
2023-08-22T05:56:34.893Z,72.01
2023-08-22T05:59:01.841Z,72.10
2023-08-22T06:01:28.913Z,71.43
2023-08-22T06:03:56.044Z,71.52
2023-08-22T06:06:22.976Z,71.77
2023-08-22T06:08:50.324Z,71.31
2023-08-22T06:11:17.780Z,70.42
2023-08-22T06:13:44.597Z,70.71
2023-08-22T06:16:11.714Z,70.78
2023-08-22T06:18:38.515Z,70.60
2023-08-22T06:21:05.354Z,70.03
2023-08-22T06:23:32.281Z,70.24
2023-08-22T06:25:59.238Z,69.78
2023-08-22T06:28:26.078Z,69.39
2023-08-22T06:30:54.769Z,69.28
2023-08-22T06:33:21.810Z,69.17
2023-08-22T06:35:48.855Z,69.57
2023-08-22T06:38:15.703Z,69.67
2023-08-22T06:40:43.259Z,70.07
2023-08-22T06:43:10.099Z,69.18
2023-08-22T06:45:38.110Z,68.93
2023-08-22T06:48:05.914Z,68.52
2023-08-22T06:50:32.974Z,68.93
2023-08-22T06:53:00.746Z,68.17
2023-08-22T06:55:27.590Z,68.30
2023-08-22T06:57:54.421Z,67.02
2023-08-22T07:00:22.287Z,66.68
2023-08-22T07:02:49.400Z,66.48
2023-08-22T07:05:18.339Z,64.96
2023-08-22T07:07:45.457Z,64.59
2023-08-22T07:10:13.823Z,65.48
2023-08-22T07:12:42.475Z,65.57
2023-08-22T07:15:09.789Z,65.69
2023-08-22T07:17:36.705Z,64.89
2023-08-22T07:20:04.695Z,64.79
2023-08-22T07:22:33.071Z,65.13
2023-08-22T07:25:00.018Z,64.13
2023-08-22T07:27:26.962Z,64.25
2023-08-22T07:29:54.005Z,64.65
2023-08-22T07:32:21.568Z,64.10
2023-08-22T07:34:48.607Z,63.89
2023-08-22T07:37:16.576Z,64.64
2023-08-22T07:39:43.728Z,63.86
2023-08-22T07:42:10.565Z,62.89
2023-08-22T07:44:37.409Z,62.93
2023-08-22T07:47:04.456Z,62.85
2023-08-22T07:49:31.316Z,63.48
2023-08-22T07:51:59.166Z,62.48
2023-08-22T07:54:26.116Z,63.05
2023-08-22T07:57:01.710Z,63.09
2023-08-22T07:59:35.452Z,62.64
2023-08-22T08:02:02.353Z,62.69
2023-08-22T08:04:31.389Z,62.15
2023-08-22T08:06:58.232Z,62.05
2023-08-22T08:09:35.036Z,61.93
2023-08-22T08:12:04.454Z,61.54
2023-08-22T08:14:31.757Z,61.32
2023-08-22T08:16:58.704Z,61.13
2023-08-22T08:19:27.431Z,60.87
2023-08-22T08:21:54.856Z,60.51
2023-08-22T08:24:22.089Z,60.69
2023-08-22T08:26:49.158Z,60.38
2023-08-22T08:29:18.542Z,58.83
2023-08-22T08:31:45.588Z,59.29
2023-08-22T08:34:12.448Z,60.43
2023-08-22T08:36:39.266Z,61.59
2023-08-22T08:39:06.518Z,61.56
2023-08-22T08:41:34.397Z,61.24
2023-08-22T08:44:02.045Z,61.28
2023-08-22T08:46:30.813Z,60.94
2023-08-22T08:48:58.288Z,60.02
2023-08-22T08:51:25.331Z,58.57
2023-08-22T08:53:53.097Z,58.46
2023-08-22T08:56:20.621Z,58.60
2023-08-22T08:58:49.237Z,58.08
2023-08-22T09:01:16.608Z,58.01
2023-08-22T09:03:45.476Z,58.82
2023-08-22T09:06:12.320Z,59.24
2023-08-22T09:08:39.977Z,59.85
2023-08-22T09:11:07.332Z,60.14
2023-08-22T09:13:54.028Z,59.40
2023-08-22T09:16:27.297Z,58.98
2023-08-22T09:19:01.161Z,59.22
2023-08-22T09:21:28.908Z,58.66
2023-08-22T09:24:09.387Z,58.97
2023-08-22T09:26:37.436Z,59.33
2023-08-22T09:29:07.971Z,58.49
2023-08-22T09:31:36.192Z,57.58
2023-08-22T09:34:09.118Z,58.55
2023-08-22T09:36:44.811Z,58.36
2023-08-22T09:39:21.331Z,58.45
2023-08-22T09:41:53.793Z,57.72
2023-08-22T09:44:25.645Z,57.36
2023-08-22T09:46:54.246Z,57.19
2023-08-22T09:49:22.215Z,56.32
2023-08-22T09:51:51.827Z,56.85
2023-08-22T09:54:18.769Z,56.57
2023-08-22T09:56:46.532Z,57.23
2023-08-22T09:59:16.847Z,56.20
2023-08-22T10:01:44.070Z,57.22
2023-08-22T10:04:13.235Z,55.72
2023-08-22T10:09:13.427Z,54.79
2023-08-22T10:11:49.078Z,53.86
2023-08-22T10:14:46.231Z,53.61
2023-08-22T10:17:13.991Z,54.61
2023-08-22T10:19:44.227Z,53.08
2023-08-22T10:22:13.057Z,51.99
2023-08-22T10:24:43.762Z,52.63
2023-08-22T10:27:16.271Z,51.51
2023-08-22T10:29:48.060Z,51.39
2023-08-22T10:32:14.932Z,51.29
2023-08-22T10:34:41.844Z,50.78
2023-08-22T10:37:22.917Z,50.27
2023-08-22T10:39:50.087Z,49.12
2023-08-22T10:42:18.139Z,48.78
2023-08-22T10:44:52.362Z,47.75
2023-08-22T10:47:20.907Z,47.50
2023-08-22T10:50:15.910Z,47.31
2023-08-22T10:52:44.385Z,47.08
2023-08-22T10:55:14.750Z,46.20
2023-08-22T10:57:46.917Z,45.69
2023-08-22T11:00:20.203Z,45.49
2023-08-22T11:02:57.933Z,45.61
2023-08-22T11:05:27.443Z,46.19
2023-08-22T11:07:54.240Z,44.89
2023-08-22T11:10:25.221Z,43.79
2023-08-22T11:12:55.206Z,44.24
2023-08-22T11:15:22.553Z,43.47
2023-08-22T11:17:51.407Z,43.13
2023-08-22T11:20:23.789Z,42.61
2023-08-22T11:22:50.893Z,42.94
2023-08-22T11:25:25.881Z,42.60
2023-08-22T11:27:53.444Z,41.75
2023-08-22T11:30:20.912Z,42.10
2023-08-22T11:32:48.295Z,42.00
2023-08-22T11:35:16.628Z,42.47
2023-08-22T11:37:44.436Z,42.32
2023-08-22T11:40:16.629Z,42.68
2023-08-22T11:42:46.981Z,41.88
2023-08-22T11:45:17.769Z,41.77
2023-08-22T11:47:49.626Z,42.03
2023-08-22T11:50:24.318Z,42.46
2023-08-22T11:53:19.054Z,42.55
2023-08-22T11:55:49.846Z,42.33
2023-08-22T11:58:17.492Z,41.69
2023-08-22T12:00:44.962Z,41.61
2023-08-22T12:03:12.101Z,41.80
2023-08-22T12:05:41.901Z,42.16
2023-08-22T12:08:11.611Z,41.99
2023-08-22T12:10:42.449Z,42.39
2023-08-22T12:13:10.327Z,42.05
2023-08-22T12:15:37.908Z,42.04
2023-08-22T12:18:05.476Z,42.51
2023-08-22T12:20:33.098Z,43.52
2023-08-22T12:23:01.675Z,42.36
2023-08-22T12:25:28.512Z,42.03
2023-08-22T12:27:55.561Z,41.81
2023-08-22T12:30:22.618Z,42.03
2023-08-22T12:32:49.778Z,40.09
2023-08-22T12:35:16.801Z,39.19
2023-08-22T12:37:44.140Z,39.08
2023-08-22T12:40:11.650Z,38.43
2023-08-22T12:42:47.916Z,37.47
2023-08-22T12:45:14.711Z,37.63
2023-08-22T12:47:43.334Z,36.21
2023-08-22T12:50:11.264Z,36.51
2023-08-22T12:52:38.519Z,35.70
2023-08-22T12:55:09.151Z,35.08
2023-08-22T12:57:37.437Z,35.93
2023-08-22T13:00:05.195Z,35.54
2023-08-22T13:02:32.319Z,35.37
2023-08-22T13:04:59.788Z,35.30
2023-08-22T13:07:26.831Z,35.67
2023-08-22T13:09:53.773Z,35.74
2023-08-22T13:12:20.622Z,36.16
2023-08-22T13:14:47.457Z,36.77
2023-08-22T13:17:14.404Z,37.17
2023-08-22T13:19:41.544Z,38.22
2023-08-22T13:22:08.409Z,39.12
2023-08-22T13:24:35.352Z,39.33
2023-08-22T13:27:02.283Z,38.74
2023-08-22T13:29:29.127Z,38.58
2023-08-22T13:31:56.104Z,38.38
2023-08-22T13:34:23.218Z,38.34
2023-08-22T13:36:50.482Z,37.09
2023-08-22T13:39:18.389Z,36.75
2023-08-22T13:41:47.423Z,37.00
2023-08-22T13:44:14.425Z,36.60
2023-08-22T13:46:42.652Z,37.23
2023-08-22T13:49:09.486Z,36.51
2023-08-22T13:51:36.329Z,36.28
2023-08-22T13:54:04.212Z,36.02
2023-08-22T13:56:31.876Z,35.37
2023-08-22T13:58:59.210Z,34.54
2023-08-22T14:01:27.369Z,35.38
2023-08-22T14:03:54.421Z,35.85
2023-08-22T14:06:21.481Z,36.09
2023-08-22T14:08:48.933Z,37.54
2023-08-22T14:11:15.963Z,39.46
2023-08-22T14:13:43.547Z,40.65
2023-08-22T14:16:10.869Z,41.65
2023-08-22T14:18:38.677Z,42.80
2023-08-22T14:21:06.212Z,43.63
2023-08-22T14:23:33.045Z,45.23
2023-08-22T14:25:59.992Z,45.98
2023-08-22T14:28:27.044Z,46.21
2023-08-22T14:31:01.630Z,47.78
2023-08-22T14:33:28.785Z,49.59
2023-08-22T14:35:56.766Z,49.78
2023-08-22T14:38:24.235Z,49.69
2023-08-22T14:40:55.694Z,51.10
2023-08-22T14:43:23.445Z,51.67
2023-08-22T14:45:51.436Z,51.62
2023-08-22T14:48:18.708Z,52.05
2023-08-22T14:50:46.018Z,51.17
2023-08-22T14:53:14.303Z,51.68
2023-08-22T14:55:55.867Z,52.64
2023-08-22T14:58:23.019Z,53.24
2023-08-22T15:00:50.235Z,51.85
2023-08-22T15:03:17.162Z,51.91
2023-08-22T15:05:44.256Z,51.68
2023-08-22T15:08:11.134Z,50.60
2023-08-22T15:10:38.246Z,49.13
2023-08-22T15:13:05.204Z,47.57
2023-08-22T15:15:32.303Z,46.35
2023-08-22T15:18:01.672Z,45.89
2023-08-22T15:20:28.729Z,44.92
2023-08-22T15:22:55.527Z,45.12
2023-08-22T15:25:23.493Z,46.08
2023-08-22T15:27:50.349Z,46.30
2023-08-22T15:30:17.285Z,45.96
2023-08-22T15:32:44.529Z,46.18
2023-08-22T15:35:11.484Z,46.60
2023-08-22T15:37:38.313Z,45.91
2023-08-22T15:40:06.181Z,46.70
2023-08-22T15:42:33.845Z,47.54
2023-08-22T15:45:01.199Z,47.16
2023-08-22T15:47:29.743Z,47.44
2023-08-22T15:49:57.641Z,49.58
2023-08-22T15:52:35.326Z,51.86
2023-08-22T15:55:08.637Z,52.12
2023-08-22T15:57:35.474Z,54.11
2023-08-22T16:00:03.155Z,55.03
2023-08-22T16:02:33.261Z,55.77
2023-08-22T16:05:00.606Z,57.05
2023-08-22T16:07:27.753Z,56.82
2023-08-22T16:09:54.699Z,56.84
2023-08-22T16:12:21.540Z,56.99
2023-08-22T16:14:48.375Z,57.42
2023-08-22T16:17:15.216Z,57.73
2023-08-22T16:19:42.017Z,57.05
2023-08-22T16:22:08.798Z,58.64
2023-08-22T16:24:35.744Z,59.12
2023-08-22T16:27:02.590Z,59.63
2023-08-22T16:29:29.525Z,59.41
2023-08-22T16:31:57.293Z,60.33
2023-08-22T16:34:24.149Z,60.10
2023-08-22T16:36:50.979Z,57.36
2023-08-22T16:39:18.737Z,55.23
2023-08-22T16:41:46.495Z,55.44
2023-08-22T16:44:13.542Z,55.83
2023-08-22T16:46:40.737Z,55.88
2023-08-22T16:49:10.607Z,56.27
2023-08-22T16:51:37.758Z,56.36
2023-08-22T16:54:08.215Z,56.56
2023-08-22T16:56:37.786Z,56.52
2023-08-22T16:59:09.329Z,56.86
2023-08-22T17:01:37.136Z,57.28
2023-08-22T17:04:04.191Z,57.75
2023-08-22T17:06:31.099Z,57.62
2023-08-22T17:08:59.269Z,57.65
2023-08-22T17:11:26.100Z,57.00
2023-08-22T17:13:53.057Z,56.78
2023-08-22T17:16:19.910Z,57.21
2023-08-22T17:18:47.043Z,57.75
2023-08-22T17:21:15.721Z,58.26
2023-08-22T17:23:44.197Z,59.15
2023-08-22T17:26:12.677Z,59.80
2023-08-22T17:28:40.560Z,60.53
2023-08-22T17:31:08.501Z,60.47
2023-08-22T17:33:39.036Z,60.80
2023-08-22T17:36:08.585Z,60.97
2023-08-22T17:38:36.313Z,61.44
2023-08-22T17:41:05.032Z,61.93
2023-08-22T17:43:33.539Z,62.94
2023-08-22T17:46:00.483Z,63.88
2023-08-22T17:48:27.868Z,63.65
2023-08-22T17:50:55.744Z,63.32
2023-08-22T17:53:22.993Z,63.06
2023-08-22T17:55:53.863Z,62.66
2023-08-22T17:58:21.302Z,62.39
2023-08-22T18:00:49.551Z,62.07
2023-08-22T18:03:16.755Z,61.82
2023-08-22T18:05:57.479Z,61.69
2023-08-22T18:08:25.027Z,61.80
2023-08-22T18:10:52.898Z,61.63
2023-08-22T18:13:20.250Z,61.51
2023-08-22T18:18:32.046Z,61.32
2023-08-22T18:21:03.267Z,61.20
2023-08-22T18:23:31.262Z,60.93
2023-08-22T18:26:02.330Z,60.96
2023-08-22T18:28:32.086Z,61.05
2023-08-22T18:31:02.638Z,61.25
2023-08-22T18:33:29.602Z,61.12
2023-08-22T18:35:56.549Z,61.46
2023-08-22T18:38:23.904Z,61.35
2023-08-22T18:40:54.218Z,61.57
2023-08-22T18:43:21.777Z,61.51
2023-08-22T18:45:49.167Z,62.14
2023-08-22T18:48:16.531Z,63.16
2023-08-22T18:50:43.521Z,63.76
2023-08-22T18:53:10.566Z,64.44
2023-08-22T18:55:37.508Z,64.66
2023-08-22T18:58:04.468Z,64.60
2023-08-22T19:00:31.444Z,64.59
2023-08-22T19:02:58.674Z,64.44
2023-08-22T19:05:25.910Z,64.19
2023-08-22T19:07:53.010Z,64.08
2023-08-22T19:10:20.248Z,64.13
2023-08-22T19:12:47.116Z,64.18
2023-08-22T19:15:13.981Z,63.98
2023-08-22T19:17:40.850Z,63.81
2023-08-22T19:20:08.578Z,64.16
2023-08-22T19:22:35.552Z,63.99
2023-08-22T19:25:02.780Z,63.75
2023-08-22T19:27:29.648Z,63.72
2023-08-22T19:29:56.564Z,63.80
2023-08-22T19:32:36.697Z,63.60
2023-08-22T19:35:10.721Z,63.49
2023-08-22T19:37:37.568Z,63.38
2023-08-22T19:40:05.028Z,63.27
2023-08-22T19:42:31.958Z,63.31
2023-08-22T19:45:02.006Z,63.42
2023-08-22T19:47:29.256Z,63.30
2023-08-22T19:49:56.378Z,63.20
2023-08-22T19:52:25.484Z,63.22
2023-08-22T19:54:52.514Z,63.20
2023-08-22T19:57:19.465Z,63.34
2023-08-22T19:59:46.404Z,63.49
2023-08-22T20:02:13.473Z,63.53
2023-08-22T20:04:40.902Z,63.25
2023-08-22T20:07:07.947Z,63.34
2023-08-22T20:09:36.040Z,63.19
2023-08-22T20:12:03.474Z,62.88
2023-08-22T20:14:31.341Z,62.80
2023-08-22T20:16:58.740Z,62.79
2023-08-22T20:19:25.638Z,62.64
2023-08-22T20:21:52.588Z,62.29
2023-08-22T20:24:19.536Z,62.56
2023-08-22T20:26:46.673Z,62.71
2023-08-22T20:29:13.613Z,62.68
2023-08-22T20:31:40.600Z,62.70
2023-08-22T20:34:07.607Z,62.68
2023-08-22T20:36:34.450Z,62.55
2023-08-22T20:39:04.464Z,62.53
2023-08-22T20:41:32.525Z,62.62
2023-08-22T20:43:59.797Z,62.49
2023-08-22T20:46:27.150Z,62.36
2023-08-22T20:48:54.240Z,62.55
2023-08-22T20:51:21.126Z,62.25
2023-08-22T20:53:47.972Z,62.18
2023-08-22T20:56:14.809Z,62.19
2023-08-22T20:58:41.657Z,62.28
2023-08-22T21:01:08.539Z,62.34
2023-08-22T21:03:35.716Z,62.37
2023-08-22T21:06:02.890Z,62.61
2023-08-22T21:08:29.736Z,62.76
2023-08-22T21:10:56.777Z,62.92
2023-08-22T21:13:23.624Z,62.89
2023-08-22T21:15:50.590Z,62.87
2023-08-22T21:18:17.620Z,62.92
2023-08-22T21:20:44.449Z,63.26
2023-08-22T21:23:11.290Z,63.10
2023-08-22T21:25:38.559Z,63.54
2023-08-22T21:28:05.609Z,63.81
2023-08-22T21:30:32.540Z,63.97
2023-08-22T21:32:59.471Z,64.10
2023-08-22T21:35:26.517Z,64.17
2023-08-22T21:37:53.368Z,64.49
2023-08-22T21:40:20.311Z,64.59
2023-08-22T21:42:47.348Z,64.99
2023-08-22T21:45:14.808Z,65.12
2023-08-22T21:47:42.601Z,64.97
2023-08-22T21:50:10.334Z,64.90
2023-08-22T21:52:38.115Z,65.15
2023-08-22T21:55:06.094Z,65.45
2023-08-22T21:57:33.416Z,65.62
2023-08-22T22:00:00.458Z,65.64
2023-08-22T22:02:27.713Z,65.74
2023-08-22T22:04:54.967Z,65.71
2023-08-22T22:07:22.022Z,66.17
2023-08-22T22:09:49.237Z,66.36
2023-08-22T22:12:16.219Z,66.32
2023-08-22T22:14:43.163Z,66.30
2023-08-22T22:17:09.990Z,66.54
2023-08-22T22:19:36.844Z,66.56
2023-08-22T22:22:03.880Z,67.07
2023-08-22T22:24:31.844Z,67.16
2023-08-22T22:26:58.687Z,67.21
2023-08-22T22:29:25.543Z,67.17
2023-08-22T22:31:52.380Z,67.37
2023-08-22T22:34:20.579Z,67.55
2023-08-22T22:36:48.817Z,67.62
2023-08-22T22:39:15.658Z,67.74
2023-08-22T22:41:42.497Z,67.61
2023-08-22T22:44:09.546Z,67.46
2023-08-22T22:46:36.433Z,67.54
2023-08-22T22:49:03.545Z,67.38
2023-08-22T22:51:30.377Z,67.43
2023-08-22T22:53:57.321Z,67.12
2023-08-22T22:56:24.174Z,67.17
2023-08-22T22:58:51.110Z,67.41
2023-08-22T23:01:17.962Z,67.24
2023-08-22T23:03:44.860Z,67.11
2023-08-22T23:06:11.945Z,66.84
2023-08-22T23:08:38.789Z,66.84
2023-08-22T23:11:07.217Z,66.91
2023-08-22T23:13:42.697Z,66.78
2023-08-22T23:16:09.606Z,66.66
2023-08-22T23:18:36.587Z,66.56
2023-08-22T23:21:03.529Z,66.61
2023-08-22T23:23:30.372Z,66.43
2023-08-22T23:26:00.080Z,66.39
2023-08-22T23:28:26.926Z,66.22
2023-08-22T23:30:53.803Z,66.22
2023-08-22T23:33:20.643Z,66.28
2023-08-22T23:35:47.444Z,66.62
2023-08-22T23:38:14.488Z,66.61
2023-08-22T23:40:41.435Z,66.72
2023-08-22T23:43:08.684Z,66.33
2023-08-22T23:45:35.539Z,66.41
2023-08-22T23:48:02.477Z,66.76
2023-08-22T23:50:30.672Z,66.91
2023-08-22T23:52:59.219Z,67.05
2023-08-22T23:55:26.164Z,67.20
2023-08-22T23:57:57.717Z,67.23
